createdAt,value
2022-12-04T00:01:31.870Z,39.25
2022-12-04T00:04:01.852Z,39.45
2022-12-04T00:06:30.498Z,38.88
2022-12-04T00:08:59.022Z,39.30
2022-12-04T00:11:31.120Z,39.35
2022-12-04T00:14:06.097Z,38.92
2022-12-04T00:16:35.648Z,39.23
2022-12-04T00:19:04.817Z,38.87
2022-12-04T00:21:33.134Z,38.99
2022-12-04T00:24:01.522Z,39.07
2022-12-04T00:26:32.174Z,38.47
2022-12-04T00:29:01.012Z,38.65
2022-12-04T00:31:30.785Z,38.37
2022-12-04T00:34:00.375Z,39.41
2022-12-04T00:36:30.854Z,39.22
2022-12-04T00:39:01.038Z,38.33
2022-12-04T00:41:33.757Z,38.27
2022-12-04T00:44:03.764Z,38.27
2022-12-04T00:46:32.583Z,38.61
2022-12-04T00:49:03.187Z,38.53
2022-12-04T00:51:32.106Z,38.72
2022-12-04T00:54:00.938Z,39.43
2022-12-04T00:56:31.521Z,38.25
2022-12-04T00:59:01.351Z,37.05
2022-12-04T01:01:30.468Z,38.56
2022-12-04T01:03:59.388Z,38.52
2022-12-04T01:06:29.231Z,38.00
2022-12-04T01:08:58.548Z,38.27
2022-12-04T01:11:27.962Z,38.80
2022-12-04T01:13:58.389Z,38.59
2022-12-04T01:16:28.510Z,38.61
2022-12-04T01:18:57.205Z,38.52
2022-12-04T01:21:25.422Z,38.22
2022-12-04T01:23:53.997Z,39.49
2022-12-04T01:26:22.426Z,39.26
2022-12-04T01:28:51.114Z,39.59
2022-12-04T01:31:22.224Z,39.57
2022-12-04T01:33:51.739Z,39.28
2022-12-04T01:36:21.785Z,39.26
2022-12-04T01:38:51.200Z,40.08
2022-12-04T01:41:22.367Z,39.88
2022-12-04T01:44:12.337Z,39.00
2022-12-04T01:46:42.456Z,39.79
2022-12-04T01:49:13.742Z,39.76
2022-12-04T01:51:44.020Z,39.96
2022-12-04T01:54:16.837Z,39.55
2022-12-04T01:56:47.518Z,39.43
2022-12-04T01:59:18.487Z,39.29
2022-12-04T02:01:54.344Z,39.52
2022-12-04T02:04:23.116Z,40.31
2022-12-04T02:06:51.225Z,40.25
2022-12-04T02:09:26.214Z,40.14
2022-12-04T02:12:00.646Z,39.50
2022-12-04T02:14:34.545Z,39.61
2022-12-04T02:17:13.044Z,39.89
2022-12-04T02:19:53.752Z,39.77
2022-12-04T02:22:32.562Z,40.17
2022-12-04T02:25:06.635Z,40.65
2022-12-04T02:28:11.077Z,39.69
2022-12-04T02:30:41.838Z,39.75
2022-12-04T02:33:19.503Z,39.48
2022-12-04T02:35:50.047Z,39.85
2022-12-04T02:38:24.717Z,39.63
2022-12-04T02:40:57.830Z,39.85
2022-12-04T02:43:28.704Z,39.41
2022-12-04T02:45:58.419Z,38.14
2022-12-04T02:48:27.829Z,39.28
2022-12-04T02:50:58.062Z,38.95
2022-12-04T02:53:28.580Z,39.34
2022-12-04T02:55:59.471Z,39.63
2022-12-04T02:58:32.344Z,38.51
2022-12-04T03:01:02.659Z,39.45
2022-12-04T03:03:32.351Z,39.07
2022-12-04T03:06:02.906Z,39.82
2022-12-04T03:08:36.118Z,39.22
2022-12-04T03:11:05.058Z,40.18
2022-12-04T03:13:40.120Z,39.14
2022-12-04T03:16:11.559Z,40.22
2022-12-04T03:18:42.017Z,40.07
2022-12-04T03:21:13.350Z,39.38
2022-12-04T03:23:45.828Z,39.49
2022-12-04T03:26:22.546Z,39.74
2022-12-04T03:28:58.295Z,39.56
2022-12-04T03:31:33.222Z,40.03
2022-12-04T03:34:04.466Z,40.73
2022-12-04T03:36:37.914Z,40.27
2022-12-04T03:39:10.307Z,40.96
2022-12-04T03:41:50.088Z,39.15
2022-12-04T03:44:24.565Z,39.96
2022-12-04T03:46:56.458Z,39.20
2022-12-04T03:49:29.206Z,40.21
2022-12-04T03:52:01.475Z,39.28
2022-12-04T03:54:32.258Z,40.24
2022-12-04T03:57:03.179Z,39.64
2022-12-04T03:59:38.973Z,39.92
2022-12-04T04:02:10.040Z,40.03
2022-12-04T04:04:41.305Z,39.85
2022-12-04T04:07:10.861Z,39.04
2022-12-04T04:09:42.785Z,40.81
2022-12-04T04:12:16.145Z,40.09
2022-12-04T04:15:08.125Z,40.02
2022-12-04T04:17:58.610Z,39.82
2022-12-04T04:20:51.970Z,39.39
2022-12-04T04:23:38.960Z,40.86
2022-12-04T04:26:08.164Z,40.48
2022-12-04T04:28:38.402Z,40.24
2022-12-04T04:31:13.049Z,39.27
2022-12-04T04:33:49.735Z,39.21
2022-12-04T04:36:25.368Z,39.17
2022-12-04T04:39:01.203Z,39.32
2022-12-04T04:41:35.411Z,39.58
2022-12-04T04:44:10.167Z,39.95
2022-12-04T04:46:42.015Z,39.75
2022-12-04T04:49:12.281Z,40.45
2022-12-04T04:51:40.537Z,40.42
2022-12-04T04:54:11.150Z,39.90
2022-12-04T04:56:42.047Z,39.61
2022-12-04T04:59:10.644Z,39.64
2022-12-04T05:01:40.857Z,39.17
2022-12-04T05:04:09.673Z,40.42
2022-12-04T05:06:37.902Z,39.79
2022-12-04T05:09:06.677Z,39.79
2022-12-04T05:11:34.923Z,40.33
2022-12-04T05:14:03.460Z,40.20
2022-12-04T05:16:32.746Z,41.49
2022-12-04T05:19:23.344Z,40.14
2022-12-04T05:21:51.569Z,40.17
2022-12-04T05:24:20.002Z,40.25
2022-12-04T05:26:48.063Z,41.33
2022-12-04T05:29:16.501Z,41.70
2022-12-04T05:31:45.866Z,43.13
2022-12-04T05:34:17.012Z,41.32
2022-12-04T05:36:45.464Z,40.65
2022-12-04T05:39:14.621Z,40.24
2022-12-04T05:41:42.633Z,41.44
2022-12-04T05:44:10.911Z,40.41
2022-12-04T05:46:39.945Z,41.10
2022-12-04T05:49:08.795Z,40.80
2022-12-04T05:51:38.978Z,40.64
2022-12-04T05:54:08.549Z,39.55
2022-12-04T05:56:38.503Z,40.84
2022-12-04T05:59:07.647Z,40.53
2022-12-04T06:01:36.505Z,40.41
2022-12-04T06:04:05.700Z,41.25
2022-12-04T06:06:34.163Z,39.91
2022-12-04T06:09:04.703Z,39.76
2022-12-04T06:11:34.564Z,39.39
2022-12-04T06:14:05.848Z,38.92
2022-12-04T06:16:37.048Z,40.82
2022-12-04T06:19:07.569Z,41.22
2022-12-04T06:21:38.745Z,41.22
2022-12-04T06:24:14.862Z,41.58
2022-12-04T06:27:04.023Z,41.64
2022-12-04T06:29:32.047Z,40.77
2022-12-04T06:32:03.360Z,41.00
2022-12-04T06:34:32.578Z,41.91
2022-12-04T06:37:00.786Z,41.22
2022-12-04T06:39:30.658Z,40.79
2022-12-04T06:41:58.810Z,40.86
2022-12-04T06:44:27.185Z,40.13
2022-12-04T06:46:55.451Z,40.69
2022-12-04T06:49:25.554Z,40.78
2022-12-04T06:51:53.607Z,40.75
2022-12-04T06:54:21.933Z,40.75
2022-12-04T06:56:51.432Z,40.49
2022-12-04T06:59:19.941Z,39.95
2022-12-04T07:01:48.305Z,39.54
2022-12-04T07:04:16.714Z,39.37
2022-12-04T07:06:44.770Z,39.72
2022-12-04T07:09:15.334Z,40.90
2022-12-04T07:11:44.055Z,40.81
2022-12-04T07:14:14.677Z,40.51
2022-12-04T07:16:43.607Z,41.13
2022-12-04T07:19:13.771Z,41.22
2022-12-04T07:21:42.726Z,40.24
2022-12-04T07:24:15.644Z,40.24
2022-12-04T07:26:44.044Z,40.43
2022-12-04T07:29:13.850Z,39.83
2022-12-04T07:31:42.050Z,39.53
2022-12-04T07:34:10.535Z,40.75
2022-12-04T07:36:40.251Z,40.36
2022-12-04T07:39:08.743Z,41.09
2022-12-04T07:41:37.007Z,40.66
2022-12-04T07:44:05.902Z,41.47
2022-12-04T07:46:38.096Z,41.08
2022-12-04T07:49:06.469Z,41.18
2022-12-04T07:51:34.531Z,40.35
2022-12-04T07:54:04.344Z,40.62
2022-12-04T07:56:32.832Z,40.75
2022-12-04T07:59:01.230Z,39.65
2022-12-04T08:01:29.877Z,39.85
2022-12-04T08:04:01.119Z,39.60
2022-12-04T08:06:31.009Z,39.27
2022-12-04T08:09:01.525Z,40.09
2022-12-04T08:11:33.340Z,39.30
2022-12-04T08:14:03.777Z,40.12
2022-12-04T08:16:33.724Z,39.26
2022-12-04T08:19:03.591Z,38.85
2022-12-04T08:21:32.485Z,39.50
2022-12-04T08:24:01.721Z,39.53
2022-12-04T08:26:31.245Z,40.01
2022-12-04T08:29:01.374Z,40.15
2022-12-04T08:31:31.081Z,39.10
2022-12-04T08:34:00.208Z,38.86
2022-12-04T08:36:30.372Z,39.44
2022-12-04T08:38:59.375Z,39.73
2022-12-04T08:41:28.208Z,39.09
2022-12-04T08:43:58.032Z,39.19
2022-12-04T08:46:27.691Z,38.97
2022-12-04T08:48:56.620Z,37.89
2022-12-04T08:51:26.298Z,38.05
2022-12-04T08:53:57.230Z,37.98
2022-12-04T08:56:25.929Z,39.71
2022-12-04T08:58:54.552Z,38.68
2022-12-04T09:01:22.631Z,38.92
2022-12-04T09:03:51.064Z,39.53
2022-12-04T09:06:19.622Z,39.76
2022-12-04T09:08:48.076Z,39.63
2022-12-04T09:11:18.973Z,39.47
2022-12-04T09:13:47.398Z,38.38
2022-12-04T09:16:17.624Z,39.69
2022-12-04T09:18:46.349Z,39.75
2022-12-04T09:21:16.056Z,38.75
2022-12-04T09:23:46.055Z,39.27
2022-12-04T09:26:21.816Z,38.84
2022-12-04T09:28:50.862Z,38.75
2022-12-04T09:31:19.895Z,38.74
2022-12-04T09:33:48.553Z,38.08
2022-12-04T09:36:17.131Z,38.21
2022-12-04T09:38:46.286Z,38.34
2022-12-04T09:41:25.131Z,37.41
2022-12-04T09:43:58.020Z,38.24
2022-12-04T09:46:28.808Z,38.55
2022-12-04T09:48:59.913Z,38.20
2022-12-04T09:51:29.067Z,37.97
2022-12-04T09:54:01.090Z,37.44
2022-12-04T09:56:31.607Z,36.63
2022-12-04T09:59:04.774Z,35.85
2022-12-04T10:01:37.223Z,35.90
2022-12-04T10:04:06.780Z,36.96
2022-12-04T10:06:40.797Z,36.77
2022-12-04T10:09:14.162Z,36.37
2022-12-04T10:11:51.678Z,36.13
2022-12-04T10:14:29.602Z,36.45
2022-12-04T10:17:19.590Z,36.70
2022-12-04T10:19:52.395Z,36.35
2022-12-04T10:22:25.023Z,35.05
2022-12-04T10:24:54.634Z,35.58
2022-12-04T10:27:27.479Z,35.07
2022-12-04T10:30:00.193Z,34.46
2022-12-04T10:32:33.087Z,34.28
2022-12-04T10:35:15.803Z,33.37
2022-12-04T10:37:45.234Z,33.78
2022-12-04T10:40:18.702Z,33.57
2022-12-04T10:42:52.978Z,32.98
2022-12-04T10:45:22.732Z,33.49
2022-12-04T10:47:51.904Z,33.12
2022-12-04T10:50:22.425Z,32.86
2022-12-04T10:52:50.614Z,33.07
2022-12-04T10:55:29.323Z,32.38
2022-12-04T10:57:58.839Z,32.44
2022-12-04T11:00:30.683Z,32.60
2022-12-04T11:03:01.190Z,32.41
2022-12-04T11:05:32.447Z,31.85
2022-12-04T11:08:02.525Z,31.20
2022-12-04T11:10:35.494Z,30.34
2022-12-04T11:13:08.094Z,28.91
2022-12-04T11:15:37.665Z,27.88
2022-12-04T11:18:09.886Z,26.52
2022-12-04T11:20:40.741Z,25.98
2022-12-04T11:23:16.409Z,23.97
2022-12-04T11:25:49.123Z,24.06
2022-12-04T11:28:40.740Z,23.44
2022-12-04T11:31:10.870Z,22.55
2022-12-04T11:33:40.458Z,22.21
2022-12-04T11:36:21.134Z,21.42
2022-12-04T11:38:49.909Z,21.60
2022-12-04T11:41:26.596Z,21.16
2022-12-04T11:44:00.022Z,21.83
2022-12-04T11:46:31.721Z,21.67
2022-12-04T11:49:00.289Z,21.72
2022-12-04T11:51:38.287Z,21.51
2022-12-04T11:54:12.814Z,21.67
2022-12-04T11:56:44.312Z,21.28
2022-12-04T11:59:34.633Z,21.84
2022-12-04T12:02:11.610Z,22.90
2022-12-04T12:04:54.787Z,23.70
2022-12-04T12:07:32.694Z,25.21
2022-12-04T12:10:05.157Z,25.70
2022-12-04T12:12:43.393Z,25.81
2022-12-04T12:15:20.970Z,26.55
2022-12-04T12:17:53.155Z,27.65
2022-12-04T12:20:23.720Z,28.54
2022-12-04T12:23:14.012Z,28.29
2022-12-04T12:25:52.063Z,28.75
2022-12-04T12:28:36.124Z,28.81
2022-12-04T12:31:16.082Z,29.04
2022-12-04T12:33:47.571Z,29.38
2022-12-04T12:36:17.593Z,30.04
2022-12-04T12:38:49.988Z,29.99
2022-12-04T12:41:20.426Z,30.64
2022-12-04T12:43:54.370Z,30.77
2022-12-04T12:46:27.698Z,31.48
2022-12-04T12:49:01.754Z,31.26
2022-12-04T12:51:35.188Z,31.04
2022-12-04T12:54:12.988Z,31.07
2022-12-04T12:56:49.159Z,31.60
2022-12-04T12:59:21.146Z,31.86
2022-12-04T13:01:58.697Z,31.82
2022-12-04T13:04:33.721Z,31.90
2022-12-04T13:07:09.529Z,31.76
2022-12-04T13:09:39.143Z,31.92
2022-12-04T13:12:12.773Z,31.97
2022-12-04T13:14:44.678Z,32.63
2022-12-04T13:17:30.419Z,32.26
2022-12-04T13:19:59.484Z,32.56
2022-12-04T13:22:33.562Z,32.14
2022-12-04T13:25:10.059Z,32.53
2022-12-04T13:27:47.977Z,32.43
2022-12-04T13:30:19.087Z,33.09
2022-12-04T13:33:09.749Z,32.23
2022-12-04T13:35:53.879Z,32.73
2022-12-04T13:38:29.644Z,33.09
2022-12-04T13:40:59.904Z,33.73
2022-12-04T13:43:36.732Z,33.47
2022-12-04T13:46:08.259Z,33.65
2022-12-04T13:48:39.746Z,32.70
2022-12-04T13:51:09.649Z,33.04
2022-12-04T13:53:40.501Z,34.02
2022-12-04T13:56:14.878Z,35.29
2022-12-04T13:58:43.945Z,36.23
2022-12-04T14:01:25.813Z,35.36
2022-12-04T14:03:57.609Z,35.95
2022-12-04T14:06:27.921Z,37.13
2022-12-04T14:08:58.374Z,36.02
2022-12-04T14:11:27.687Z,35.60
2022-12-04T14:13:57.276Z,35.95
2022-12-04T14:16:27.203Z,36.28
2022-12-04T14:18:58.195Z,36.92
2022-12-04T14:21:26.656Z,37.45
2022-12-04T14:23:54.842Z,37.62
2022-12-04T14:26:37.450Z,37.75
2022-12-04T14:29:31.537Z,37.18
2022-12-04T14:32:02.135Z,36.65
2022-12-04T14:34:32.642Z,37.50
2022-12-04T14:37:02.207Z,37.31
2022-12-04T14:39:31.437Z,37.35
2022-12-04T14:42:07.722Z,37.31
2022-12-04T14:44:35.822Z,37.30
2022-12-04T14:47:14.983Z,36.43
2022-12-04T14:49:51.535Z,37.62
2022-12-04T14:52:26.581Z,37.86
2022-12-04T14:55:02.978Z,36.97
2022-12-04T14:57:41.546Z,36.58
2022-12-04T15:00:16.480Z,36.83
2022-12-04T15:02:46.093Z,37.74
2022-12-04T15:05:20.825Z,37.04
2022-12-04T15:07:51.528Z,37.72
2022-12-04T15:10:40.249Z,37.40
2022-12-04T15:13:09.471Z,38.61
2022-12-04T15:15:38.096Z,38.29
2022-12-04T15:18:14.043Z,37.61
2022-12-04T15:20:56.088Z,37.33
2022-12-04T15:23:29.389Z,38.04
2022-12-04T15:25:59.048Z,37.65
2022-12-04T15:28:29.349Z,38.42
2022-12-04T15:30:58.807Z,38.51
2022-12-04T15:33:28.551Z,38.85
2022-12-04T15:36:00.500Z,38.17
2022-12-04T15:38:29.197Z,38.85
2022-12-04T15:40:58.999Z,39.24
2022-12-04T15:43:29.850Z,38.83
2022-12-04T15:45:58.624Z,40.06
2022-12-04T15:48:28.735Z,39.00
2022-12-04T15:51:00.383Z,38.53
2022-12-04T15:53:31.105Z,38.84
2022-12-04T15:56:01.483Z,39.16
2022-12-04T15:58:31.140Z,40.73
2022-12-04T16:01:00.913Z,39.15
2022-12-04T16:03:32.045Z,38.87
2022-12-04T16:06:07.157Z,38.70
2022-12-04T16:08:42.468Z,39.55
2022-12-04T16:11:25.723Z,37.67
2022-12-04T16:14:06.538Z,38.31
2022-12-04T16:16:35.555Z,39.56
2022-12-04T16:19:08.471Z,39.46
2022-12-04T16:21:38.346Z,38.34
2022-12-04T16:24:08.972Z,38.91
2022-12-04T16:26:37.260Z,38.94
2022-12-04T16:29:05.715Z,40.22
2022-12-04T16:31:34.237Z,40.33
2022-12-04T16:34:02.462Z,39.41
2022-12-04T16:36:30.904Z,38.89
2022-12-04T16:39:00.894Z,39.19
2022-12-04T16:41:29.374Z,39.88
2022-12-04T16:43:59.849Z,40.38
2022-12-04T16:46:30.695Z,40.27
2022-12-04T16:49:04.277Z,40.14
2022-12-04T16:51:37.460Z,40.31
2022-12-04T16:54:07.024Z,39.29
2022-12-04T16:56:35.493Z,39.83
2022-12-04T16:59:07.702Z,39.07
2022-12-04T17:01:42.634Z,38.64
2022-12-04T17:04:11.076Z,39.68
2022-12-04T17:06:39.563Z,40.05
2022-12-04T17:09:10.023Z,39.33
2022-12-04T17:11:38.788Z,39.79
2022-12-04T17:14:08.097Z,39.72
2022-12-04T17:16:36.736Z,39.69
2022-12-04T17:19:05.665Z,39.78
2022-12-04T17:21:34.308Z,39.64
2022-12-04T17:24:03.267Z,38.81
2022-12-04T17:26:33.287Z,38.93
2022-12-04T17:29:01.391Z,39.39
2022-12-04T17:31:29.992Z,39.33
2022-12-04T17:33:58.692Z,40.00
2022-12-04T17:36:27.963Z,41.07
2022-12-04T17:38:57.084Z,39.82
2022-12-04T17:41:25.631Z,41.33
2022-12-04T17:43:55.282Z,40.92
2022-12-04T17:46:24.708Z,40.11
2022-12-04T17:48:53.196Z,40.06
2022-12-04T17:51:23.193Z,39.11
2022-12-04T17:53:52.069Z,39.25
2022-12-04T17:56:21.978Z,38.89
2022-12-04T17:58:50.306Z,38.89
2022-12-04T18:01:22.333Z,38.41
2022-12-04T18:03:51.292Z,38.35
2022-12-04T18:06:21.943Z,38.52
2022-12-04T18:08:50.714Z,38.86
2022-12-04T18:11:20.950Z,38.64
2022-12-04T18:13:49.401Z,39.04
2022-12-04T18:16:17.954Z,38.10
2022-12-04T18:18:47.910Z,38.02
2022-12-04T18:21:16.623Z,38.19
2022-12-04T18:23:46.035Z,38.35
2022-12-04T18:26:16.359Z,38.39
2022-12-04T18:28:45.030Z,38.94
2022-12-04T18:31:14.090Z,38.63
2022-12-04T18:33:43.239Z,38.90
2022-12-04T18:36:16.340Z,39.07
2022-12-04T18:38:44.862Z,40.02
2022-12-04T18:41:14.724Z,38.94
2022-12-04T18:43:45.273Z,38.70
2022-12-04T18:46:16.376Z,39.27
2022-12-04T18:48:45.946Z,39.20
2022-12-04T18:51:17.765Z,39.92
2022-12-04T18:53:45.977Z,40.54
2022-12-04T18:56:14.704Z,40.58
2022-12-04T18:58:42.975Z,40.17
2022-12-04T19:01:12.594Z,39.93
2022-12-04T19:03:41.361Z,39.25
2022-12-04T19:06:09.989Z,39.76
2022-12-04T19:08:43.029Z,38.85
2022-12-04T19:11:15.189Z,38.52
2022-12-04T19:13:43.143Z,37.92
2022-12-04T19:16:12.742Z,38.88
2022-12-04T19:18:42.328Z,39.73
2022-12-04T19:21:10.817Z,38.51
2022-12-04T19:23:40.745Z,38.26
2022-12-04T19:26:09.522Z,38.62
2022-12-04T19:28:38.182Z,38.97
2022-12-04T19:31:06.645Z,39.36
2022-12-04T19:33:34.793Z,40.27
2022-12-04T19:36:05.460Z,40.27
2022-12-04T19:38:34.174Z,40.07
2022-12-04T19:41:06.480Z,39.00
2022-12-04T19:43:34.673Z,40.05
2022-12-04T19:46:03.178Z,38.75
2022-12-04T19:48:31.351Z,38.84
2022-12-04T19:51:04.091Z,38.45
2022-12-04T19:53:36.256Z,39.45
2022-12-04T19:56:11.247Z,38.32
2022-12-04T19:58:39.499Z,38.53
2022-12-04T20:01:09.770Z,38.28
2022-12-04T20:03:38.053Z,38.78
2022-12-04T20:06:07.980Z,40.10
2022-12-04T20:08:36.447Z,40.28
2022-12-04T20:11:05.672Z,39.16
2022-12-04T20:13:37.301Z,38.74
2022-12-04T20:16:06.990Z,39.01
2022-12-04T20:18:35.884Z,39.06
2022-12-04T20:21:05.069Z,39.69
2022-12-04T20:23:33.166Z,38.93
2022-12-04T20:26:05.262Z,38.57
2022-12-04T20:28:33.604Z,39.60
2022-12-04T20:31:12.400Z,38.26
2022-12-04T20:33:41.303Z,39.55
2022-12-04T20:36:10.423Z,39.90
2022-12-04T20:38:39.120Z,38.66
2022-12-04T20:41:09.205Z,38.16
2022-12-04T20:43:38.146Z,38.91
2022-12-04T20:46:16.539Z,38.48
2022-12-04T20:48:48.335Z,39.12
2022-12-04T20:51:17.431Z,39.43
2022-12-04T20:53:45.866Z,38.23
2022-12-04T20:56:14.584Z,37.88
2022-12-04T20:58:42.834Z,38.10
2022-12-04T21:01:13.126Z,38.26
2022-12-04T21:03:43.204Z,37.60
2022-12-04T21:06:13.978Z,37.63
2022-12-04T21:08:54.468Z,37.58
2022-12-04T21:11:23.158Z,37.59
2022-12-04T21:14:08.634Z,38.55
2022-12-04T21:16:37.264Z,38.28
2022-12-04T21:19:09.552Z,37.95
2022-12-04T21:21:38.376Z,37.78
2022-12-04T21:24:08.649Z,37.90
2022-12-04T21:26:37.107Z,37.74
2022-12-04T21:29:06.481Z,37.71
2022-12-04T21:31:35.374Z,37.61
2022-12-04T21:34:08.003Z,37.99
2022-12-04T21:36:36.382Z,37.63
2022-12-04T21:39:05.177Z,37.48
2022-12-04T21:41:51.199Z,37.59
2022-12-04T21:44:21.143Z,37.85
2022-12-04T21:46:50.106Z,38.37
2022-12-04T21:49:20.331Z,37.74
2022-12-04T21:51:57.313Z,37.87
2022-12-04T21:54:26.872Z,38.05
2022-12-04T21:56:55.703Z,37.63
2022-12-04T21:59:23.831Z,38.12
2022-12-04T22:01:52.493Z,38.02
2022-12-04T22:04:22.375Z,39.29
2022-12-04T22:06:54.063Z,38.77
2022-12-04T22:09:21.980Z,37.95
2022-12-04T22:11:50.363Z,39.53
2022-12-04T22:14:18.466Z,40.06
2022-12-04T22:16:47.051Z,40.65
2022-12-04T22:19:15.622Z,40.70
2022-12-04T22:21:45.290Z,39.04
2022-12-04T22:24:14.684Z,39.47
2022-12-04T22:26:42.981Z,39.40
2022-12-04T22:29:41.943Z,38.87
2022-12-04T22:31:59.514Z,39.50
2022-12-04T22:34:27.527Z,39.96
2022-12-04T22:36:57.269Z,39.75
2022-12-04T22:39:25.427Z,39.80
2022-12-04T22:41:53.823Z,39.91
2022-12-04T22:44:22.003Z,41.16
2022-12-04T22:46:50.451Z,41.09
2022-12-04T22:49:18.591Z,40.99
2022-12-04T22:51:46.910Z,40.48
2022-12-04T22:54:18.304Z,40.42
2022-12-04T22:56:46.825Z,40.72
2022-12-04T22:59:15.170Z,41.56
2022-12-04T23:01:43.542Z,40.33
2022-12-04T23:04:14.945Z,40.11
2022-12-04T23:06:43.279Z,42.19
2022-12-04T23:09:14.633Z,41.49
2022-12-04T23:11:45.336Z,41.05
2022-12-04T23:14:15.794Z,41.47
2022-12-04T23:16:44.787Z,40.84
2022-12-04T23:19:15.669Z,40.74
2022-12-04T23:21:44.548Z,41.25
2022-12-04T23:24:12.911Z,40.93
2022-12-04T23:26:42.885Z,40.54
2022-12-04T23:32:04.855Z,41.77
2022-12-04T23:34:33.326Z,42.14
2022-12-04T23:37:02.104Z,40.81
2022-12-04T23:39:30.568Z,41.58
2022-12-04T23:41:59.021Z,40.93
2022-12-04T23:44:28.658Z,40.10
2022-12-04T23:46:57.170Z,39.15
2022-12-04T23:49:25.237Z,39.83
2022-12-04T23:51:53.512Z,40.00
2022-12-04T23:54:21.613Z,39.62
2022-12-04T23:56:49.949Z,39.65
2022-12-04T23:59:18.008Z,40.02
